createdAt,value
2022-10-19T00:00:48.062Z,1.90
2022-10-19T00:04:08.819Z,1.65
2022-10-19T00:07:16.985Z,1.40
2022-10-19T00:10:22.682Z,1.50
2022-10-19T00:13:28.214Z,2.08
2022-10-19T00:16:38.114Z,2.00
2022-10-19T00:19:43.550Z,1.27
2022-10-19T00:22:52.905Z,2.10
2022-10-19T00:26:00.059Z,1.38
2022-10-19T00:29:06.690Z,1.77
2022-10-19T00:32:15.093Z,1.40
2022-10-19T00:35:22.752Z,1.48
2022-10-19T00:38:33.645Z,2.03
2022-10-19T00:41:43.846Z,1.75
2022-10-19T00:45:06.751Z,1.65
2022-10-19T00:48:23.790Z,2.83
2022-10-19T00:51:31.241Z,1.75
2022-10-19T00:54:37.902Z,1.60
2022-10-19T00:57:43.381Z,1.67
2022-10-19T01:00:51.899Z,1.80
2022-10-19T01:04:00.194Z,1.77
2022-10-19T01:07:07.149Z,1.73
2022-10-19T01:10:16.251Z,2.55
2022-10-19T01:13:29.996Z,1.77
2022-10-19T01:16:41.113Z,1.98
2022-10-19T01:20:00.790Z,1.75
2022-10-19T01:23:34.877Z,2.17
2022-10-19T01:26:52.182Z,1.85
2022-10-19T01:30:21.505Z,2.05
2022-10-19T01:33:36.035Z,2.33
2022-10-19T01:36:44.042Z,2.13
2022-10-19T01:40:04.910Z,2.10
2022-10-19T01:43:13.586Z,2.42
2022-10-19T01:46:24.486Z,1.27
2022-10-19T01:49:36.313Z,2.08
2022-10-19T01:52:47.650Z,1.83
2022-10-19T01:55:57.014Z,1.88
2022-10-19T01:59:07.693Z,1.85
2022-10-19T02:02:14.803Z,1.70
2022-10-19T02:05:25.667Z,2.03
2022-10-19T02:08:33.319Z,1.27
2022-10-19T02:11:46.439Z,1.20
2022-10-19T02:15:04.851Z,1.58
2022-10-19T02:18:11.937Z,1.65
2022-10-19T02:21:20.326Z,1.95
2022-10-19T02:24:30.699Z,1.80
2022-10-19T02:27:36.220Z,1.65
2022-10-19T02:30:48.578Z,1.30
2022-10-19T02:34:10.834Z,1.10
2022-10-19T02:41:03.531Z,1.80
2022-10-19T02:44:13.812Z,1.38
2022-10-19T02:47:21.598Z,1.60
2022-10-19T02:50:27.686Z,1.67
2022-10-19T02:53:35.498Z,1.70
2022-10-19T02:56:50.976Z,1.83
2022-10-19T02:59:57.717Z,1.67
2022-10-19T03:03:04.276Z,1.50
2022-10-19T03:06:11.414Z,1.50
2022-10-19T03:09:21.899Z,1.23
2022-10-19T03:12:27.723Z,1.83
2022-10-19T03:15:36.165Z,1.50
2022-10-19T03:18:43.757Z,1.33
2022-10-19T03:21:49.367Z,1.10
2022-10-19T03:24:57.098Z,1.35
2022-10-19T03:28:02.603Z,0.73
2022-10-19T03:31:07.720Z,1.10
2022-10-19T03:34:13.421Z,1.90
2022-10-19T03:37:21.431Z,0.70
2022-10-19T03:40:29.623Z,1.40
2022-10-19T03:43:34.727Z,1.30
2022-10-19T03:46:50.793Z,1.10
2022-10-19T03:49:56.034Z,1.48
2022-10-19T03:56:17.153Z,1.27
2022-10-19T03:59:24.515Z,1.10
2022-10-19T04:02:31.031Z,1.45
2022-10-19T04:05:36.775Z,1.45
2022-10-19T04:08:41.686Z,1.60
2022-10-19T04:11:50.094Z,1.20
2022-10-19T04:14:57.823Z,1.20
2022-10-19T04:18:03.688Z,1.08
2022-10-19T04:21:11.060Z,1.02
2022-10-19T04:24:18.056Z,1.10
2022-10-19T04:27:25.739Z,1.13
2022-10-19T04:30:31.285Z,1.10
2022-10-19T04:33:36.513Z,1.15
2022-10-19T04:36:41.736Z,0.88
2022-10-19T04:39:47.280Z,0.98
2022-10-19T04:42:56.702Z,1.00
2022-10-19T04:46:07.587Z,1.20
2022-10-19T04:49:16.382Z,1.15
2022-10-19T04:52:24.359Z,0.60
2022-10-19T04:55:30.874Z,0.57
2022-10-19T04:58:38.591Z,0.47
2022-10-19T05:01:46.373Z,0.93
2022-10-19T05:04:52.254Z,0.68
2022-10-19T05:07:57.615Z,0.60
2022-10-19T05:11:06.007Z,0.68
2022-10-19T05:14:14.574Z,1.10
2022-10-19T05:17:21.923Z,0.95
2022-10-19T05:20:27.782Z,1.10
2022-10-19T05:26:57.985Z,1.05
2022-10-19T05:30:06.603Z,0.85
2022-10-19T05:33:11.791Z,0.85
2022-10-19T05:36:19.196Z,0.60
2022-10-19T05:39:24.750Z,0.50
2022-10-19T05:42:29.632Z,0.60
2022-10-19T05:45:37.567Z,0.60
2022-10-19T05:48:43.157Z,0.68
2022-10-19T05:51:48.681Z,0.43
2022-10-19T05:54:54.152Z,0.60
2022-10-19T05:57:59.459Z,0.40
2022-10-19T06:01:08.368Z,0.57
2022-10-19T06:04:15.135Z,0.47
2022-10-19T06:07:20.022Z,0.55
2022-10-19T06:10:25.228Z,0.68
2022-10-19T06:13:30.145Z,0.50
2022-10-19T06:16:38.398Z,0.50
2022-10-19T06:19:43.295Z,0.47
2022-10-19T06:22:48.760Z,0.50
2022-10-19T06:25:53.608Z,0.60
2022-10-19T06:29:01.295Z,0.52
2022-10-19T06:32:10.377Z,0.57
2022-10-19T06:35:16.250Z,0.50
2022-10-19T06:38:21.143Z,0.55
2022-10-19T06:41:28.017Z,0.52
2022-10-19T06:44:32.898Z,0.47
2022-10-19T06:47:41.272Z,0.60
2022-10-19T06:50:50.993Z,0.50
2022-10-19T06:53:57.473Z,0.60
2022-10-19T06:57:03.338Z,0.50
2022-10-19T07:00:10.170Z,0.90
2022-10-19T07:03:17.737Z,1.05
2022-10-19T07:06:24.594Z,0.77
2022-10-19T07:09:29.605Z,0.55
2022-10-19T07:12:35.248Z,0.70
2022-10-19T07:15:40.183Z,5.97
2022-10-19T07:18:48.207Z,4.18
2022-10-19T07:21:53.539Z,4.47
2022-10-19T07:24:58.997Z,3.35
2022-10-19T07:28:06.129Z,3.65
2022-10-19T07:31:13.263Z,2.22
2022-10-19T07:34:23.144Z,4.57
2022-10-19T07:37:33.468Z,1.27
2022-10-19T07:40:41.522Z,0.70
2022-10-19T07:43:49.691Z,0.55
2022-10-19T07:46:54.758Z,2.38
2022-10-19T07:50:02.590Z,2.38
2022-10-19T07:53:09.641Z,1.25
2022-10-19T07:56:15.992Z,0.80
2022-10-19T07:59:21.017Z,0.57
2022-10-19T08:02:30.908Z,0.63
2022-10-19T08:05:51.358Z,0.50
2022-10-19T08:08:57.076Z,0.60
2022-10-19T08:12:02.546Z,0.40
2022-10-19T08:15:08.481Z,0.30
2022-10-19T08:18:13.724Z,0.52
2022-10-19T08:21:22.021Z,0.52
2022-10-19T08:24:26.985Z,0.73
2022-10-19T08:27:32.357Z,0.60
2022-10-19T08:30:38.726Z,0.60
2022-10-19T08:33:44.096Z,0.60
2022-10-19T08:36:51.565Z,0.45
2022-10-19T08:39:56.950Z,0.30
2022-10-19T08:43:05.292Z,0.43
2022-10-19T08:46:15.682Z,0.32
2022-10-19T08:49:21.892Z,0.30
2022-10-19T08:52:34.436Z,0.50
2022-10-19T08:58:51.067Z,0.50
2022-10-19T09:01:58.236Z,0.47
2022-10-19T09:05:06.297Z,0.70
2022-10-19T09:08:17.770Z,0.20
2022-10-19T09:11:26.349Z,0.52
2022-10-19T09:14:33.380Z,0.60
2022-10-19T09:17:38.715Z,0.45
2022-10-19T09:20:45.907Z,0.40
2022-10-19T09:23:58.577Z,0.30
2022-10-19T09:27:04.012Z,0.30
2022-10-19T09:30:13.714Z,0.32
2022-10-19T09:33:22.017Z,0.40
2022-10-19T09:36:49.456Z,0.47
2022-10-19T09:39:58.505Z,1.02
2022-10-19T09:43:19.013Z,0.93
2022-10-19T09:46:30.408Z,0.38
2022-10-19T09:49:42.599Z,0.47
2022-10-19T09:52:48.057Z,0.50
2022-10-19T09:56:00.259Z,0.45
2022-10-19T09:59:05.221Z,0.30
2022-10-19T10:02:18.255Z,0.40
2022-10-19T10:05:34.179Z,0.50
2022-10-19T10:08:41.099Z,0.77
2022-10-19T10:11:50.495Z,0.47
2022-10-19T10:14:56.710Z,0.30
2022-10-19T10:18:01.639Z,0.52
2022-10-19T10:21:07.833Z,1.02
2022-10-19T10:24:21.120Z,0.43
2022-10-19T10:27:35.795Z,0.30
2022-10-19T10:30:41.305Z,0.40
2022-10-19T10:33:55.168Z,0.45
2022-10-19T10:37:00.516Z,0.50
2022-10-19T10:40:07.489Z,0.60
2022-10-19T10:43:17.830Z,0.50
2022-10-19T10:46:25.510Z,0.30
2022-10-19T10:49:31.187Z,0.38
2022-10-19T10:52:38.300Z,0.68
2022-10-19T10:55:43.319Z,0.38
2022-10-19T10:58:53.162Z,0.40
2022-10-19T11:02:03.642Z,0.47
2022-10-19T11:05:13.333Z,0.57
2022-10-19T11:08:21.813Z,0.30
2022-10-19T11:11:29.150Z,0.30
2022-10-19T11:14:39.994Z,0.80
2022-10-19T11:17:51.978Z,0.50
2022-10-19T11:21:03.079Z,1.08
2022-10-19T11:24:14.365Z,0.45
2022-10-19T11:27:24.222Z,0.57
2022-10-19T11:30:36.966Z,0.50
2022-10-19T11:33:50.238Z,0.40
2022-10-19T11:37:00.715Z,0.35
2022-10-19T11:40:11.669Z,0.40
2022-10-19T11:43:23.498Z,0.30
2022-10-19T11:46:37.810Z,0.22
2022-10-19T11:49:49.096Z,0.70
2022-10-19T11:52:56.924Z,0.50
2022-10-19T11:56:06.310Z,0.50
2022-10-19T11:59:18.196Z,0.63
2022-10-19T12:02:34.542Z,0.50
2022-10-19T12:05:43.493Z,0.43
2022-10-19T12:08:56.825Z,0.80
2022-10-19T12:12:18.548Z,0.40
2022-10-19T12:15:26.633Z,0.70
2022-10-19T12:18:38.226Z,0.65
2022-10-19T12:21:44.471Z,0.70
2022-10-19T12:24:53.499Z,0.80
2022-10-19T12:27:59.972Z,0.70
2022-10-19T12:31:05.870Z,0.52
2022-10-19T12:34:20.695Z,0.60
2022-10-19T12:37:28.523Z,0.38
2022-10-19T12:40:36.328Z,0.45
2022-10-19T12:43:44.347Z,0.40
2022-10-19T12:46:53.104Z,0.50
2022-10-19T12:50:02.500Z,0.50
2022-10-19T12:53:07.896Z,0.43
2022-10-19T12:56:15.545Z,0.40
2022-10-19T12:59:25.718Z,0.50
2022-10-19T13:05:41.989Z,0.40
2022-10-19T13:08:49.974Z,0.40
2022-10-19T13:12:23.569Z,0.50
2022-10-19T13:15:46.621Z,0.43
2022-10-19T13:19:10.321Z,0.40
2022-10-19T13:22:30.002Z,0.40
2022-10-19T13:25:38.518Z,0.70
2022-10-19T13:28:54.700Z,0.47
2022-10-19T13:32:19.942Z,0.28
2022-10-19T13:35:35.430Z,0.50
2022-10-19T13:38:42.214Z,0.43
2022-10-19T13:41:53.523Z,0.32
2022-10-19T13:44:58.978Z,0.38
2022-10-19T13:48:06.736Z,0.40
2022-10-19T13:51:16.958Z,0.30
2022-10-19T13:54:35.209Z,0.30
2022-10-19T13:57:53.824Z,0.40
2022-10-19T14:01:08.677Z,0.70
2022-10-19T14:04:21.701Z,0.38
2022-10-19T14:07:29.270Z,0.40
2022-10-19T14:10:56.178Z,0.40
2022-10-19T14:14:14.702Z,0.47
2022-10-19T14:17:24.458Z,0.40
2022-10-19T14:20:31.849Z,0.60
2022-10-19T14:23:38.323Z,0.50
2022-10-19T14:26:45.658Z,0.30
2022-10-19T14:29:52.001Z,0.77
2022-10-19T14:33:02.262Z,0.40
2022-10-19T14:36:08.521Z,0.30
2022-10-19T14:39:25.415Z,0.70
2022-10-19T14:42:38.621Z,0.30
2022-10-19T14:45:43.583Z,0.50
2022-10-19T14:48:52.592Z,0.40
2022-10-19T14:51:59.237Z,0.20
2022-10-19T14:55:08.118Z,0.30
2022-10-19T14:58:15.913Z,0.32
2022-10-19T15:01:22.130Z,0.50
2022-10-19T15:04:31.648Z,0.40
2022-10-19T15:07:39.283Z,0.22
2022-10-19T15:10:45.902Z,0.40
2022-10-19T15:13:52.043Z,0.40
2022-10-19T15:16:58.172Z,0.50
2022-10-19T15:20:25.218Z,0.80
2022-10-19T15:23:36.518Z,0.20
2022-10-19T15:26:41.834Z,0.35
2022-10-19T15:29:57.743Z,0.32
2022-10-19T15:33:16.057Z,0.50
2022-10-19T15:36:24.543Z,0.50
2022-10-19T15:39:39.726Z,0.30
2022-10-19T15:42:48.928Z,0.40
2022-10-19T15:46:04.900Z,0.30
2022-10-19T15:49:34.819Z,0.40
2022-10-19T15:52:42.942Z,0.30
2022-10-19T15:55:49.846Z,0.40
2022-10-19T15:58:56.264Z,0.30
2022-10-19T16:02:01.279Z,0.60
2022-10-19T16:05:09.709Z,1.15
2022-10-19T16:08:17.390Z,1.40
2022-10-19T16:11:23.740Z,1.27
2022-10-19T16:14:31.964Z,1.40
2022-10-19T16:17:41.062Z,1.10
2022-10-19T16:20:46.131Z,1.25
2022-10-19T16:23:56.276Z,1.90
2022-10-19T16:27:05.305Z,1.85
2022-10-19T16:30:11.650Z,2.20
2022-10-19T16:33:16.820Z,1.52
2022-10-19T16:39:45.720Z,1.65
2022-10-19T16:42:51.149Z,2.40
2022-10-19T16:45:56.418Z,2.42
2022-10-19T16:49:05.861Z,1.83
2022-10-19T16:52:10.810Z,4.68
2022-10-19T16:55:20.802Z,1.90
2022-10-19T16:58:25.764Z,1.10
2022-10-19T17:01:32.576Z,0.80
2022-10-19T17:04:39.144Z,1.30
2022-10-19T17:07:44.440Z,1.00
2022-10-19T17:10:52.171Z,1.00
2022-10-19T17:13:58.702Z,0.88
2022-10-19T17:17:03.648Z,0.98
2022-10-19T17:20:11.347Z,0.90
2022-10-19T17:23:16.329Z,0.70
2022-10-19T17:26:27.714Z,0.75
2022-10-19T17:29:32.756Z,0.60
2022-10-19T17:32:38.102Z,0.63
2022-10-19T17:35:43.142Z,1.10
2022-10-19T17:38:48.703Z,0.73
2022-10-19T17:41:57.620Z,0.90
2022-10-19T17:45:03.014Z,0.60
2022-10-19T17:48:08.498Z,0.50
2022-10-19T17:51:16.022Z,0.80
2022-10-19T17:54:20.975Z,0.40
2022-10-19T17:57:28.909Z,0.47
2022-10-19T18:00:36.082Z,0.60
2022-10-19T18:03:42.106Z,0.50
2022-10-19T18:06:47.491Z,0.50
2022-10-19T18:09:53.000Z,0.50
2022-10-19T18:13:00.601Z,0.40
2022-10-19T18:16:07.026Z,0.50
2022-10-19T18:19:12.209Z,0.60
2022-10-19T18:22:21.903Z,0.57
2022-10-19T18:25:49.365Z,0.50
2022-10-19T18:28:57.802Z,0.45
2022-10-19T18:35:10.468Z,0.57
2022-10-19T18:38:15.464Z,0.88
2022-10-19T18:41:22.962Z,0.70
2022-10-19T18:44:33.524Z,0.60
2022-10-19T18:47:39.096Z,0.70
2022-10-19T18:50:52.061Z,0.70
2022-10-19T18:54:00.096Z,0.40
2022-10-19T18:57:05.160Z,0.40
2022-10-19T19:00:27.494Z,0.40
2022-10-19T19:03:32.539Z,0.70
2022-10-19T19:06:38.418Z,0.30
2022-10-19T19:09:43.891Z,0.50
2022-10-19T19:12:51.770Z,0.28
2022-10-19T19:16:02.830Z,0.80
2022-10-19T19:19:08.361Z,0.40
2022-10-19T19:22:19.489Z,0.52
2022-10-19T19:25:28.979Z,0.90
2022-10-19T19:28:36.513Z,0.50
2022-10-19T19:31:47.437Z,1.60
2022-10-19T19:34:59.491Z,0.40
2022-10-19T19:38:08.872Z,0.50
2022-10-19T19:41:16.249Z,1.08
2022-10-19T19:44:22.907Z,1.20
2022-10-19T19:47:34.828Z,1.30
2022-10-19T19:50:58.568Z,1.00
2022-10-19T19:54:03.991Z,0.60
2022-10-19T19:57:09.166Z,0.70
2022-10-19T20:04:09.701Z,0.52
2022-10-19T20:07:19.770Z,0.70
2022-10-19T20:10:24.933Z,0.68
2022-10-19T20:13:30.320Z,0.65
2022-10-19T20:16:35.712Z,0.98
2022-10-19T20:19:41.183Z,0.60
2022-10-19T20:22:51.176Z,1.00
2022-10-19T20:25:56.543Z,0.90
2022-10-19T20:29:01.847Z,0.95
2022-10-19T20:32:21.891Z,1.02
2022-10-19T20:35:27.825Z,1.23
2022-10-19T20:38:43.200Z,1.73
2022-10-19T20:41:48.146Z,2.17
2022-10-19T20:44:54.821Z,1.75
2022-10-19T20:47:59.756Z,2.13
2022-10-19T20:51:14.835Z,1.92
2022-10-19T20:54:31.676Z,2.45
2022-10-19T20:57:37.085Z,2.67
2022-10-19T21:00:42.969Z,2.72
2022-10-19T21:03:52.743Z,2.90
2022-10-19T21:06:57.697Z,2.40
2022-10-19T21:10:05.762Z,2.42
2022-10-19T21:13:10.726Z,2.88
2022-10-19T21:16:18.864Z,2.75
2022-10-19T21:19:25.562Z,2.83
2022-10-19T21:22:39.685Z,3.10
2022-10-19T21:26:06.601Z,3.30
2022-10-19T21:33:09.613Z,2.80
2022-10-19T21:36:22.562Z,3.40
2022-10-19T21:39:34.942Z,3.15
2022-10-19T21:42:55.717Z,3.20
2022-10-19T21:46:00.837Z,2.90
2022-10-19T21:49:06.302Z,3.55
2022-10-19T21:52:16.253Z,3.70
2022-10-19T21:55:31.849Z,3.13
2022-10-19T21:58:39.533Z,3.72
2022-10-19T22:01:45.161Z,3.30
2022-10-19T22:04:58.226Z,3.03
2022-10-19T22:08:03.936Z,3.30
2022-10-19T22:11:09.582Z,3.97
2022-10-19T22:14:30.630Z,3.90
2022-10-19T22:17:42.595Z,3.30
2022-10-19T22:21:10.834Z,3.65
2022-10-19T22:24:30.222Z,3.90
2022-10-19T22:27:45.027Z,4.10
2022-10-19T22:30:59.446Z,4.28
2022-10-19T22:34:08.887Z,4.22
2022-10-19T22:37:13.888Z,4.05
2022-10-19T22:40:19.242Z,3.80
2022-10-19T22:43:26.229Z,3.97
2022-10-19T22:46:35.202Z,4.30
2022-10-19T22:49:40.121Z,3.67
2022-10-19T22:52:46.522Z,3.85
2022-10-19T22:55:51.572Z,4.55
2022-10-19T22:59:00.867Z,4.35
2022-10-19T23:02:16.698Z,3.90
2022-10-19T23:05:22.980Z,4.15
2022-10-19T23:08:30.299Z,4.38
2022-10-19T23:11:35.633Z,4.60
2022-10-19T23:14:41.647Z,5.05
2022-10-19T23:17:49.497Z,4.72
2022-10-19T23:20:58.222Z,6.10
2022-10-19T23:24:03.580Z,6.05
2022-10-19T23:27:09.581Z,5.22
2022-10-19T23:30:14.880Z,6.03
2022-10-19T23:33:23.490Z,5.47
2022-10-19T23:36:31.550Z,6.13
2022-10-19T23:39:36.483Z,6.38
2022-10-19T23:42:41.878Z,6.68
2022-10-19T23:45:49.291Z,6.03
2022-10-19T23:48:59.315Z,7.13
2022-10-19T23:52:04.241Z,6.50
2022-10-19T23:55:13.194Z,7.05
2022-10-19T23:58:18.181Z,6.78
